sensor_id;sensor_type;location;lat;lon;timestamp;pressure;altitude;pressure_sealevel;temperature;humidity
20624;BME280;10471;42.736;23.346;2023-02-10T00:01:28;97447.22;;;-5.84;100.00
20624;BME280;10471;42.736;23.346;2023-02-10T00:03:55;97432.31;;;-5.90;100.00
20624;BME280;10471;42.736;23.346;2023-02-10T00:06:22;97445.28;;;-5.91;100.00
20624;BME280;10471;42.736;23.346;2023-02-10T00:08:50;97444.72;;;-5.95;100.00
20624;BME280;10471;42.736;23.346;2023-02-10T00:11:16;97440.06;;;-6.01;100.00
20624;BME280;10471;42.736;23.346;2023-02-10T00:13:43;97439.50;;;-6.04;100.00
20624;BME280;10471;42.736;23.346;2023-02-10T00:16:11;97427.53;;;-6.15;100.00
20624;BME280;10471;42.736;23.346;2023-02-10T00:18:38;97426.09;;;-6.08;100.00
20624;BME280;10471;42.736;23.346;2023-02-10T00:21:10;97425.16;;;-6.07;100.00
20624;BME280;10471;42.736;23.346;2023-02-10T00:23:37;97430.56;;;-6.10;100.00
20624;BME280;10471;42.736;23.346;2023-02-10T00:26:07;97428.34;;;-6.14;100.00
20624;BME280;10471;42.736;23.346;2023-02-10T00:28:34;97428.75;;;-6.30;100.00
20624;BME280;10471;42.736;23.346;2023-02-10T00:31:05;97430.25;;;-6.27;100.00
20624;BME280;10471;42.736;23.346;2023-02-10T00:33:30;97423.28;;;-6.36;100.00
20624;BME280;10471;42.736;23.346;2023-02-10T00:35:56;97422.00;;;-6.31;100.00
20624;BME280;10471;42.736;23.346;2023-02-10T00:38:21;97417.69;;;-6.30;100.00
20624;BME280;10471;42.736;23.346;2023-02-10T00:40:46;97416.06;;;-6.31;100.00
20624;BME280;10471;42.736;23.346;2023-02-10T00:43:12;97411.06;;;-6.33;100.00
20624;BME280;10471;42.736;23.346;2023-02-10T00:45:37;97411.78;;;-6.42;100.00
20624;BME280;10471;42.736;23.346;2023-02-10T00:48:03;97405.50;;;-6.48;100.00
20624;BME280;10471;42.736;23.346;2023-02-10T00:50:28;97405.66;;;-6.50;100.00
20624;BME280;10471;42.736;23.346;2023-02-10T00:52:53;97405.97;;;-6.44;100.00
20624;BME280;10471;42.736;23.346;2023-02-10T00:55:19;97407.59;;;-6.43;100.00
20624;BME280;10471;42.736;23.346;2023-02-10T00:57:44;97397.34;;;-6.43;100.00
20624;BME280;10471;42.736;23.346;2023-02-10T01:00:10;97407.59;;;-6.43;100.00
20624;BME280;10471;42.736;23.346;2023-02-10T01:02:35;97400.16;;;-6.46;100.00
20624;BME280;10471;42.736;23.346;2023-02-10T01:05:01;97396.41;;;-6.42;100.00
20624;BME280;10471;42.736;23.346;2023-02-10T01:07:28;97397.34;;;-6.43;100.00
20624;BME280;10471;42.736;23.346;2023-02-10T01:09:54;97394.53;;;-6.40;100.00
20624;BME280;10471;42.736;23.346;2023-02-10T01:12:20;97390.38;;;-6.41;100.00
20624;BME280;10471;42.736;23.346;2023-02-10T01:14:45;97388.16;;;-6.45;100.00
20624;BME280;10471;42.736;23.346;2023-02-10T01:17:11;97385.34;;;-6.42;100.00
20624;BME280;10471;42.736;23.346;2023-02-10T01:19:36;97395.03;;;-6.46;100.00
20624;BME280;10471;42.736;23.346;2023-02-10T01:22:01;97391.78;;;-6.47;100.00
20624;BME280;10471;42.736;23.346;2023-02-10T01:24:27;97392.38;;;-6.55;100.00
20624;BME280;10471;42.736;23.346;2023-02-10T01:26:52;97383.19;;;-6.57;100.00
20624;BME280;10471;42.736;23.346;2023-02-10T01:29:18;97395.06;;;-6.56;100.00
20624;BME280;10471;42.736;23.346;2023-02-10T01:31:43;97384.13;;;-6.58;100.00
20624;BME280;10471;42.736;23.346;2023-02-10T01:34:08;97375.28;;;-6.65;100.00
20624;BME280;10471;42.736;23.346;2023-02-10T01:36:35;97383.09;;;-6.67;100.00
20624;BME280;10471;42.736;23.346;2023-02-10T01:39:00;97377.38;;;-6.70;100.00
20624;BME280;10471;42.736;23.346;2023-02-10T01:41:26;97375.09;;;-6.73;100.00
20624;BME280;10471;42.736;23.346;2023-02-10T01:44:00;97375.75;;;-6.71;100.00
20624;BME280;10471;42.736;23.346;2023-02-10T01:46:27;97366.03;;;-6.77;100.00
20624;BME280;10471;42.736;23.346;2023-02-10T01:48:55;97366.97;;;-6.89;100.00
20624;BME280;10471;42.736;23.346;2023-02-10T01:51:30;97367.06;;;-6.80;100.00
20624;BME280;10471;42.736;23.346;2023-02-10T01:53:58;97365.19;;;-6.78;100.00
20624;BME280;10471;42.736;23.346;2023-02-10T01:56:24;97367.63;;;-6.76;100.00
20624;BME280;10471;42.736;23.346;2023-02-10T01:58:49;97368.81;;;-6.80;100.00
20624;BME280;10471;42.736;23.346;2023-02-10T02:01:16;97354.38;;;-6.81;100.00
20624;BME280;10471;42.736;23.346;2023-02-10T02:03:42;97357.00;;;-6.92;100.00
20624;BME280;10471;42.736;23.346;2023-02-10T02:06:08;97358.38;;;-6.88;100.00
20624;BME280;10471;42.736;23.346;2023-02-10T02:08:33;97350.44;;;-6.85;100.00
20624;BME280;10471;42.736;23.346;2023-02-10T02:19:03;97352.47;;;-7.11;100.00
20624;BME280;10471;42.736;23.346;2023-02-10T02:24:41;97348.63;;;-7.16;100.00
20624;BME280;10471;42.736;23.346;2023-02-10T02:27:15;97351.31;;;-7.28;100.00
20624;BME280;10471;42.736;23.346;2023-02-10T02:32:43;97350.75;;;-7.43;100.00
20624;BME280;10471;42.736;23.346;2023-02-10T02:35:17;97336.56;;;-7.47;100.00
20624;BME280;10471;42.736;23.346;2023-02-10T02:37:46;97334.94;;;-7.48;100.00
20624;BME280;10471;42.736;23.346;2023-02-10T02:40:15;97328.66;;;-7.44;100.00
20624;BME280;10471;42.736;23.346;2023-02-10T02:42:40;97335.88;;;-7.49;100.00
20624;BME280;10471;42.736;23.346;2023-02-10T02:45:12;97337.28;;;-7.45;100.00
20624;BME280;10471;42.736;23.346;2023-02-10T02:53:08;97326.59;;;-7.61;100.00
20624;BME280;10471;42.736;23.346;2023-02-10T03:01:03;97329.47;;;-7.87;100.00
20624;BME280;10471;42.736;23.346;2023-02-10T03:03:34;97327.75;;;-7.76;100.00
20624;BME280;10471;42.736;23.346;2023-02-10T03:06:00;97329.47;;;-7.76;100.00
20624;BME280;10471;42.736;23.346;2023-02-10T03:08:28;97326.72;;;-7.73;100.00
20624;BME280;10471;42.736;23.346;2023-02-10T03:10:54;97334.84;;;-7.68;100.00
20624;BME280;10471;42.736;23.346;2023-02-10T03:13:20;97329.84;;;-7.80;100.00
20624;BME280;10471;42.736;23.346;2023-02-10T03:15:45;97334.97;;;-7.80;100.00
20624;BME280;10471;42.736;23.346;2023-02-10T03:18:11;97339.47;;;-7.84;100.00
20624;BME280;10471;42.736;23.346;2023-02-10T03:20:36;97336.31;;;-7.98;100.00
20624;BME280;10471;42.736;23.346;2023-02-10T03:23:02;97338.88;;;-7.98;100.00
20624;BME280;10471;42.736;23.346;2023-02-10T03:25:27;97340.75;;;-7.89;100.00
20624;BME280;10471;42.736;23.346;2023-02-10T03:27:52;97339.09;;;-8.12;100.00
20624;BME280;10471;42.736;23.346;2023-02-10T03:30:18;97344.69;;;-8.07;100.00
20624;BME280;10471;42.736;23.346;2023-02-10T03:32:43;97340.63;;;-8.21;100.00
20624;BME280;10471;42.736;23.346;2023-02-10T03:35:08;97331.19;;;-8.20;100.00
20624;BME280;10471;42.736;23.346;2023-02-10T03:37:34;97343.75;;;-8.17;100.00
20624;BME280;10471;42.736;23.346;2023-02-10T03:39:59;97341.53;;;-8.11;100.00
20624;BME280;10471;42.736;23.346;2023-02-10T03:42:24;97337.47;;;-8.02;100.00
20624;BME280;10471;42.736;23.346;2023-02-10T03:44:50;97334.56;;;-7.98;100.00
20624;BME280;10471;42.736;23.346;2023-02-10T03:47:16;97330.03;;;-7.94;100.00
20624;BME280;10471;42.736;23.346;2023-02-10T03:49:41;97329.47;;;-7.87;100.00
20624;BME280;10471;42.736;23.346;2023-02-10T03:52:06;97316.81;;;-7.88;100.00
20624;BME280;10471;42.736;23.346;2023-02-10T03:54:32;97323.44;;;-7.86;100.00
20624;BME280;10471;42.736;23.346;2023-02-10T03:56:58;97316.09;;;-7.79;100.00
20624;BME280;10471;42.736;23.346;2023-02-10T03:59:24;97312.41;;;-7.76;100.00
20624;BME280;10471;42.736;23.346;2023-02-10T04:01:50;97310.78;;;-7.77;100.00
20624;BME280;10471;42.736;23.346;2023-02-10T04:04:15;97315.66;;;-7.74;100.00
20624;BME280;10471;42.736;23.346;2023-02-10T04:06:41;97313.56;;;-7.69;100.00
20624;BME280;10471;42.736;23.346;2023-02-10T04:09:06;97310.06;;;-7.68;100.00
20624;BME280;10471;42.736;23.346;2023-02-10T04:11:32;97311.91;;;-7.70;100.00
20624;BME280;10471;42.736;23.346;2023-02-10T04:13:57;97320.53;;;-7.71;100.00
20624;BME280;10471;42.736;23.346;2023-02-10T04:16:22;97315.31;;;-7.69;100.00
20624;BME280;10471;42.736;23.346;2023-02-10T04:18:53;97320.75;;;-7.74;100.00
20624;BME280;10471;42.736;23.346;2023-02-10T04:21:18;97316.47;;;-7.73;100.00
20624;BME280;10471;42.736;23.346;2023-02-10T04:23:43;97310.78;;;-7.77;100.00
20624;BME280;10471;42.736;23.346;2023-02-10T04:26:09;97309.59;;;-7.83;100.00
20624;BME280;10471;42.736;23.346;2023-02-10T04:28:34;97316.56;;;-7.85;100.00
20624;BME280;10471;42.736;23.346;2023-02-10T04:31:00;97315.28;;;-7.91;100.00
20624;BME280;10471;42.736;23.346;2023-02-10T04:33:27;97311.69;;;-7.99;100.00
20624;BME280;10471;42.736;23.346;2023-02-10T04:35:54;97314.25;;;-7.99;100.00
20624;BME280;10471;42.736;23.346;2023-02-10T04:38:20;97327.72;;;-7.97;100.00
20624;BME280;10471;42.736;23.346;2023-02-10T04:40:45;97318.44;;;-7.98;100.00
20624;BME280;10471;42.736;23.346;2023-02-10T04:43:11;97305.66;;;-7.98;100.00
20624;BME280;10471;42.736;23.346;2023-02-10T04:45:37;97318.75;;;-8.03;100.00
20624;BME280;10471;42.736;23.346;2023-02-10T04:48:03;97316.31;;;-8.04;100.00
20624;BME280;10471;42.736;23.346;2023-02-10T04:50:28;97315.66;;;-8.17;100.00
20624;BME280;10471;42.736;23.346;2023-02-10T04:52:54;97313.66;;;-8.25;100.00
20624;BME280;10471;42.736;23.346;2023-02-10T04:55:19;97317.25;;;-8.16;100.00
20624;BME280;10471;42.736;23.346;2023-02-10T04:57:45;97325.63;;;-8.14;100.00
20624;BME280;10471;42.736;23.346;2023-02-10T05:00:10;97320.03;;;-8.08;100.00
20624;BME280;10471;42.736;23.346;2023-02-10T05:02:36;97333.53;;;-8.06;100.00
20624;BME280;10471;42.736;23.346;2023-02-10T05:05:02;97335.84;;;-8.14;100.00
20624;BME280;10471;42.736;23.346;2023-02-10T05:07:27;97341.53;;;-8.11;100.00
20624;BME280;10471;42.736;23.346;2023-02-10T05:09:53;97347.69;;;-8.13;100.00
20624;BME280;10471;42.736;23.346;2023-02-10T05:12:18;97344.44;;;-8.15;100.00
20624;BME280;10471;42.736;23.346;2023-02-10T05:14:44;97344.44;;;-8.15;100.00
20624;BME280;10471;42.736;23.346;2023-02-10T05:17:09;97344.69;;;-8.18;100.00
20624;BME280;10471;42.736;23.346;2023-02-10T05:19:34;97347.69;;;-8.13;100.00
20624;BME280;10471;42.736;23.346;2023-02-10T05:22:00;97354.91;;;-8.18;100.00
20624;BME280;10471;42.736;23.346;2023-02-10T05:24:25;97357.00;;;-8.23;100.00
20624;BME280;10471;42.736;23.346;2023-02-10T05:26:51;97362.09;;;-8.23;100.00
20624;BME280;10471;42.736;23.346;2023-02-10T05:29:16;97376.22;;;-8.30;100.00
20624;BME280;10471;42.736;23.346;2023-02-10T05:31:41;97377.63;;;-8.26;100.00
20624;BME280;10471;42.736;23.346;2023-02-10T05:34:07;97379.69;;;-8.31;100.00
20624;BME280;10471;42.736;23.346;2023-02-10T05:36:32;97380.75;;;-8.34;100.00
20624;BME280;10471;42.736;23.346;2023-02-10T05:38:58;97386.69;;;-8.33;100.00
20624;BME280;10471;42.736;23.346;2023-02-10T05:41:42;97385.06;;;-8.34;100.00
20624;BME280;10471;42.736;23.346;2023-02-10T05:44:07;97382.16;;;-8.30;100.00
20624;BME280;10471;42.736;23.346;2023-02-10T05:46:33;97381.13;;;-8.27;100.00
20624;BME280;10471;42.736;23.346;2023-02-10T05:48:58;97383.56;;;-8.26;100.00
20624;BME280;10471;42.736;23.346;2023-02-10T05:51:24;97395.06;;;-8.20;100.00
20624;BME280;10471;42.736;23.346;2023-02-10T05:53:49;97392.31;;;-8.17;100.00
20624;BME280;10471;42.736;23.346;2023-02-10T05:56:15;97395.31;;;-8.12;100.00
20624;BME280;10471;42.736;23.346;2023-02-10T05:58:40;97399.47;;;-8.11;100.00
20624;BME280;10471;42.736;23.346;2023-02-10T06:01:07;97394.88;;;-8.06;100.00
20624;BME280;10471;42.736;23.346;2023-02-10T06:03:33;97397.53;;;-7.97;100.00
20624;BME280;10471;42.736;23.346;2023-02-10T06:05:59;97403.00;;;-7.90;100.00
20624;BME280;10471;42.736;23.346;2023-02-10T06:08:24;97403.97;;;-7.91;100.00
20624;BME280;10471;42.736;23.346;2023-02-10T06:10:51;97400.25;;;-7.87;100.00
20624;BME280;10471;42.736;23.346;2023-02-10T06:13:16;97409.63;;;-7.88;100.00
20624;BME280;10471;42.736;23.346;2023-02-10T06:15:41;97403.50;;;-7.85;100.00
20624;BME280;10471;42.736;23.346;2023-02-10T06:18:07;97406.75;;;-7.83;100.00
20624;BME280;10471;42.736;23.346;2023-02-10T06:20:32;97418.16;;;-7.77;100.00
20624;BME280;10471;42.736;23.346;2023-02-10T06:22:58;97413.28;;;-7.69;100.00
20624;BME280;10471;42.736;23.346;2023-02-10T06:25:23;97419.78;;;-7.65;100.00
20624;BME280;10471;42.736;23.346;2023-02-10T06:27:48;97420.31;;;-7.60;100.00
20624;BME280;10471;42.736;23.346;2023-02-10T06:30:14;97421.91;;;-7.59;100.00
20624;BME280;10471;42.736;23.346;2023-02-10T06:32:39;97428.44;;;-7.55;100.00
20624;BME280;10471;42.736;23.346;2023-02-10T06:35:05;97431.69;;;-7.53;100.00
20624;BME280;10471;42.736;23.346;2023-02-10T06:37:30;97428.91;;;-7.50;100.00
20624;BME280;10471;42.736;23.346;2023-02-10T06:39:55;97427.75;;;-7.46;100.00
20624;BME280;10471;42.736;23.346;2023-02-10T06:42:21;97430.97;;;-7.44;100.00
20624;BME280;10471;42.736;23.346;2023-02-10T06:44:46;97422.19;;;-7.40;100.00
20624;BME280;10471;42.736;23.346;2023-02-10T06:47:12;97425.78;;;-7.31;100.00
20624;BME280;10471;42.736;23.346;2023-02-10T06:49:37;97425.88;;;-7.22;100.00
20624;BME280;10471;42.736;23.346;2023-02-10T06:52:03;97418.19;;;-7.11;100.00
20624;BME280;10471;42.736;23.346;2023-02-10T06:54:28;97424.03;;;-6.98;100.00
20624;BME280;10471;42.736;23.346;2023-02-10T06:56:54;97437.97;;;-6.91;100.00
20624;BME280;10471;42.736;23.346;2023-02-10T06:59:19;97440.97;;;-6.86;100.00
20624;BME280;10471;42.736;23.346;2023-02-10T07:01:46;97439.59;;;-6.79;100.00
20624;BME280;10471;42.736;23.346;2023-02-10T07:04:11;97438.28;;;-6.74;100.00
20624;BME280;10471;42.736;23.346;2023-02-10T07:06:37;97442.84;;;-6.66;100.00
20624;BME280;10471;42.736;23.346;2023-02-10T07:09:03;97436.41;;;-6.61;100.00
20624;BME280;10471;42.736;23.346;2023-02-10T07:11:30;97437.78;;;-6.46;100.00
20624;BME280;10471;42.736;23.346;2023-02-10T07:13:56;97427.13;;;-6.31;100.00
20624;BME280;10471;42.736;23.346;2023-02-10T07:16:22;97426.50;;;-6.12;100.00
20624;BME280;10471;42.736;23.346;2023-02-10T07:18:47;97418.72;;;-6.01;100.00
20624;BME280;10471;42.736;23.346;2023-02-10T07:21:13;97418.56;;;-5.89;100.00
20624;BME280;10471;42.736;23.346;2023-02-10T07:23:38;97413.09;;;-5.75;100.00
20624;BME280;10471;42.736;23.346;2023-02-10T07:26:04;97423.28;;;-5.64;100.00
20624;BME280;10471;42.736;23.346;2023-02-10T07:28:30;97433.59;;;-5.55;100.00
20624;BME280;10471;42.736;23.346;2023-02-10T07:30:55;97431.22;;;-5.47;100.00
20624;BME280;10471;42.736;23.346;2023-02-10T07:33:21;97434.22;;;-5.42;100.00
20624;BME280;10471;42.736;23.346;2023-02-10T07:35:46;97429.00;;;-5.31;100.00
20624;BME280;10471;42.736;23.346;2023-02-10T07:38:11;97427.28;;;-5.21;100.00
20624;BME280;10471;42.736;23.346;2023-02-10T07:40:37;97425.97;;;-5.16;100.00
20624;BME280;10471;42.736;23.346;2023-02-10T07:43:02;97416.56;;;-5.06;100.00
20624;BME280;10471;42.736;23.346;2023-02-10T07:45:28;97419.56;;;-5.01;100.00
20624;BME280;10471;42.736;23.346;2023-02-10T07:47:57;97410.34;;;-5.03;100.00
20624;BME280;10471;42.736;23.346;2023-02-10T07:50:22;97415.66;;;-4.95;100.00
20624;BME280;10471;42.736;23.346;2023-02-10T07:52:48;97417.31;;;-4.85;100.00
20624;BME280;10471;42.736;23.346;2023-02-10T07:55:13;97419.09;;;-4.76;100.00
20624;BME280;10471;42.736;23.346;2023-02-10T07:57:39;97422.91;;;-4.61;100.00
20624;BME280;10471;42.736;23.346;2023-02-10T08:00:06;97420.50;;;-4.44;100.00
20624;BME280;10471;42.736;23.346;2023-02-10T08:02:32;97416.47;;;-4.27;100.00
20624;BME280;10471;42.736;23.346;2023-02-10T08:04:58;97425.00;;;-4.17;100.00
20624;BME280;10471;42.736;23.346;2023-02-10T08:07:24;97420.13;;;-4.01;100.00
20624;BME280;10471;42.736;23.346;2023-02-10T08:09:49;97420.81;;;-3.99;100.00
20624;BME280;10471;42.736;23.346;2023-02-10T08:12:15;97418.66;;;-3.94;100.00
20624;BME280;10471;42.736;23.346;2023-02-10T08:14:40;97416.88;;;-3.85;100.00
20624;BME280;10471;42.736;23.346;2023-02-10T08:17:05;97406.97;;;-3.80;100.00
20624;BME280;10471;42.736;23.346;2023-02-10T08:19:31;97407.91;;;-3.71;100.00
20624;BME280;10471;42.736;23.346;2023-02-10T08:21:56;97401.69;;;-3.69;100.00
20624;BME280;10471;42.736;23.346;2023-02-10T08:24:22;97400.72;;;-3.58;100.00
20624;BME280;10471;42.736;23.346;2023-02-10T08:26:47;97402.88;;;-3.44;100.00
20624;BME280;10471;42.736;23.346;2023-02-10T08:29:13;97404.03;;;-3.29;100.00
20624;BME280;10471;42.736;23.346;2023-02-10T08:31:38;97401.16;;;-3.17;100.00
20624;BME280;10471;42.736;23.346;2023-02-10T08:34:04;97399.72;;;-3.02;100.00
20624;BME280;10471;42.736;23.346;2023-02-10T08:36:29;97405.97;;;-3.05;100.00
20624;BME280;10471;42.736;23.346;2023-02-10T08:38:56;97404.88;;;-3.02;100.00
20624;BME280;10471;42.736;23.346;2023-02-10T08:41:21;97405.81;;;-3.03;100.00
20624;BME280;10471;42.736;23.346;2023-02-10T08:43:47;97399.09;;;-3.14;100.00
20624;BME280;10471;42.736;23.346;2023-02-10T08:46:13;97395.53;;;-3.03;100.00
20624;BME280;10471;42.736;23.346;2023-02-10T08:48:39;97389.41;;;-3.02;100.00
20624;BME280;10471;42.736;23.346;2023-02-10T08:51:09;97394.78;;;-2.86;100.00
20624;BME280;10471;42.736;23.346;2023-02-10T08:53:35;97395.53;;;-2.76;100.00
20624;BME280;10471;42.736;23.346;2023-02-10T08:56:03;97392.75;;;-2.65;100.00
20624;BME280;10471;42.736;23.346;2023-02-10T08:58:30;97397.56;;;-2.53;100.00
20624;BME280;10471;42.736;23.346;2023-02-10T09:00:55;97394.00;;;-2.43;100.00
20624;BME280;10471;42.736;23.346;2023-02-10T09:03:21;97376.75;;;-2.25;100.00
20624;BME280;10471;42.736;23.346;2023-02-10T09:05:47;97378.38;;;-2.24;100.00
20624;BME280;10471;42.736;23.346;2023-02-10T09:08:14;97379.19;;;-2.23;100.00
20624;BME280;10471;42.736;23.346;2023-02-10T09:10:41;97372.56;;;-2.26;100.00
20624;BME280;10471;42.736;23.346;2023-02-10T09:13:07;97375.72;;;-2.14;100.00
20624;BME280;10471;42.736;23.346;2023-02-10T09:15:37;97372.19;;;-1.96;100.00
20624;BME280;10471;42.736;23.346;2023-02-10T09:18:03;97374.97;;;-1.90;100.00
20624;BME280;10471;42.736;23.346;2023-02-10T09:20:28;97370.59;;;-1.89;97.14
20624;BME280;10471;42.736;23.346;2023-02-10T09:22:53;97372.03;;;-1.95;97.95
20624;BME280;10471;42.736;23.346;2023-02-10T09:25:19;97369.25;;;-1.76;100.00
20624;BME280;10471;42.736;23.346;2023-02-10T09:27:44;97366.41;;;-1.90;96.92
20624;BME280;10471;42.736;23.346;2023-02-10T09:30:10;97364.91;;;-1.75;97.96
20624;BME280;10471;42.736;23.346;2023-02-10T09:32:35;97360.84;;;-1.52;96.31
20624;BME280;10471;42.736;23.346;2023-02-10T09:35:01;97362.25;;;-1.40;92.78
20624;BME280;10471;42.736;23.346;2023-02-10T09:37:26;97360.09;;;-1.20;93.13
20624;BME280;10471;42.736;23.346;2023-02-10T09:39:51;97352.41;;;-1.04;92.86
20624;BME280;10471;42.736;23.346;2023-02-10T09:45:24;97337.19;;;-0.73;86.85
20624;BME280;10471;42.736;23.346;2023-02-10T09:47:50;97345.41;;;-0.70;81.84
20624;BME280;10471;42.736;23.346;2023-02-10T09:50:51;97341.13;;;-0.54;84.82
20624;BME280;10471;42.736;23.346;2023-02-10T09:53:24;97335.81;;;-0.36;83.78
20624;BME280;10471;42.736;23.346;2023-02-10T09:55:56;97326.28;;;-0.20;82.98
20624;BME280;10471;42.736;23.346;2023-02-10T10:10:40;97313.81;;;0.15;71.69
20624;BME280;10471;42.736;23.346;2023-02-10T10:13:15;97304.41;;;0.14;70.17
20624;BME280;10471;42.736;23.346;2023-02-10T10:15:48;97303.59;;;0.30;73.35
20624;BME280;10471;42.736;23.346;2023-02-10T10:21:24;97296.28;;;0.49;68.89
20624;BME280;10471;42.736;23.346;2023-02-10T10:29:23;97281.91;;;0.85;67.93
20624;BME280;10471;42.736;23.346;2023-02-10T10:32:08;97272.91;;;1.03;67.82
20624;BME280;10471;42.736;23.346;2023-02-10T10:34:40;97273.75;;;1.26;64.29
20624;BME280;10471;42.736;23.346;2023-02-10T10:37:15;97274.59;;;1.19;62.86
20624;BME280;10471;42.736;23.346;2023-02-10T10:39:53;97269.28;;;1.12;62.35
20624;BME280;10471;42.736;23.346;2023-02-10T10:42:25;97263.75;;;1.15;62.47
20624;BME280;10471;42.736;23.346;2023-02-10T10:45:02;97252.88;;;1.20;65.27
20624;BME280;10471;42.736;23.346;2023-02-10T10:47:42;97247.88;;;1.40;63.50
20624;BME280;10471;42.736;23.346;2023-02-10T10:50:17;97253.75;;;1.57;64.22
20624;BME280;10471;42.736;23.346;2023-02-10T10:52:44;97247.94;;;1.77;63.35
20624;BME280;10471;42.736;23.346;2023-02-10T10:55:19;97244.66;;;1.97;60.32
20624;BME280;10471;42.736;23.346;2023-02-10T10:57:46;97247.00;;;2.07;60.00
20624;BME280;10471;42.736;23.346;2023-02-10T11:00:24;97232.94;;;2.16;58.38
20624;BME280;10471;42.736;23.346;2023-02-10T11:02:53;97232.34;;;2.14;55.68
20624;BME280;10471;42.736;23.346;2023-02-10T11:05:19;97231.97;;;2.17;54.63
20624;BME280;10471;42.736;23.346;2023-02-10T11:07:50;97233.84;;;1.72;54.96
20624;BME280;10471;42.736;23.346;2023-02-10T11:10:35;97230.59;;;1.92;54.82
20624;BME280;10471;42.736;23.346;2023-02-10T11:13:02;97225.25;;;2.08;57.54
20624;BME280;10471;42.736;23.346;2023-02-10T11:15:40;97227.25;;;2.35;57.21
20624;BME280;10471;42.736;23.346;2023-02-10T11:18:16;97230.47;;;2.51;54.14
20624;BME280;10471;42.736;23.346;2023-02-10T11:20:52;97223.84;;;2.49;53.18
20624;BME280;10471;42.736;23.346;2023-02-10T11:23:18;97223.13;;;2.40;53.54
20624;BME280;10471;42.736;23.346;2023-02-10T11:25:59;97217.56;;;2.29;53.26
20624;BME280;10471;42.736;23.346;2023-02-10T11:28:27;97218.47;;;2.36;53.05
20624;BME280;10471;42.736;23.346;2023-02-10T11:31:00;97206.28;;;2.51;53.64
20624;BME280;10471;42.736;23.346;2023-02-10T11:33:29;97202.31;;;2.69;54.39
20624;BME280;10471;42.736;23.346;2023-02-10T11:36:06;97207.00;;;2.94;53.65
20624;BME280;10471;42.736;23.346;2023-02-10T11:38:33;97198.38;;;3.08;52.21
20624;BME280;10471;42.736;23.346;2023-02-10T11:41:02;97202.75;;;3.08;51.14
20624;BME280;10471;42.736;23.346;2023-02-10T11:46:04;97180.59;;;3.32;51.17
20624;BME280;10471;42.736;23.346;2023-02-10T11:48:30;97184.38;;;3.51;50.87
20624;BME280;10471;42.736;23.346;2023-02-10T11:51:16;97185.38;;;3.71;49.82
20624;BME280;10471;42.736;23.346;2023-02-10T11:53:45;97179.28;;;3.64;48.70
20624;BME280;10471;42.736;23.346;2023-02-10T11:59:17;97177.41;;;4.06;48.73
20624;BME280;10471;42.736;23.346;2023-02-10T12:01:52;97174.09;;;4.18;47.87
20624;BME280;10471;42.736;23.346;2023-02-10T12:26:03;97130.06;;;4.83;45.85
20624;BME280;10471;42.736;23.346;2023-02-10T12:31:28;97133.34;;;5.11;44.18
20624;BME280;10471;42.736;23.346;2023-02-10T12:37:08;97132.75;;;5.21;43.94
20624;BME280;10471;42.736;23.346;2023-02-10T12:39:51;97132.69;;;4.96;42.93
20624;BME280;10471;42.736;23.346;2023-02-10T12:50:36;97121.28;;;5.10;41.94
20624;BME280;10471;42.736;23.346;2023-02-10T12:55:48;97111.84;;;5.21;42.15
20624;BME280;10471;42.736;23.346;2023-02-10T12:58:21;97118.72;;;5.42;42.01
20624;BME280;10471;42.736;23.346;2023-02-10T13:00:57;97113.69;;;5.53;42.00
20624;BME280;10471;42.736;23.346;2023-02-10T13:03:31;97121.94;;;5.63;41.30
20624;BME280;10471;42.736;23.346;2023-02-10T13:14:28;97117.13;;;5.54;42.49
20624;BME280;10471;42.736;23.346;2023-02-10T13:16:56;97118.78;;;5.81;41.32
20624;BME280;10471;42.736;23.346;2023-02-10T13:19:53;97112.50;;;5.62;41.35
20624;BME280;10471;42.736;23.346;2023-02-10T13:27:25;97116.72;;;5.70;40.54
20624;BME280;10471;42.736;23.346;2023-02-10T13:32:50;97111.66;;;6.20;41.01
20624;BME280;10471;42.736;23.346;2023-02-10T13:35:22;97121.84;;;6.53;39.78
20624;BME280;10471;42.736;23.346;2023-02-10T13:37:54;97109.34;;;6.49;41.05
20624;BME280;10471;42.736;23.346;2023-02-10T13:40:23;97104.47;;;6.65;40.81
20624;BME280;10471;42.736;23.346;2023-02-10T13:42:53;97105.63;;;6.76;40.04
20624;BME280;10471;42.736;23.346;2023-02-10T13:45:25;97110.84;;;6.19;39.55
20624;BME280;10471;42.736;23.346;2023-02-10T13:47:58;97102.84;;;5.95;40.21
20624;BME280;10471;42.736;23.346;2023-02-10T13:50:30;97099.84;;;5.98;41.01
20624;BME280;10471;42.736;23.346;2023-02-10T13:53:03;97102.34;;;6.37;41.06
20624;BME280;10471;42.736;23.346;2023-02-10T14:00:30;97108.00;;;6.34;41.09
20624;BME280;10471;42.736;23.346;2023-02-10T14:03:20;97104.97;;;6.37;40.59
20624;BME280;10471;42.736;23.346;2023-02-10T14:08:41;97102.25;;;5.74;42.23
20624;BME280;10471;42.736;23.346;2023-02-10T14:13:43;97090.97;;;5.99;42.59
20624;BME280;10471;42.736;23.346;2023-02-10T14:18:42;97099.41;;;6.01;41.26
20624;BME280;10471;42.736;23.346;2023-02-10T14:21:12;97100.41;;;6.00;41.00
20624;BME280;10471;42.736;23.346;2023-02-10T14:23:41;97098.19;;;6.10;41.88
20624;BME280;10471;42.736;23.346;2023-02-10T14:26:29;97097.44;;;5.77;41.12
20624;BME280;10471;42.736;23.346;2023-02-10T14:28:58;97100.06;;;5.84;41.40
20624;BME280;10471;42.736;23.346;2023-02-10T14:31:27;97102.66;;;5.90;41.03
20624;BME280;10471;42.736;23.346;2023-02-10T14:33:59;97089.59;;;5.77;42.57
20624;BME280;10471;42.736;23.346;2023-02-10T14:36:26;97084.13;;;5.91;41.92
20624;BME280;10471;42.736;23.346;2023-02-10T14:38:54;97093.59;;;5.86;42.04
20624;BME280;10471;42.736;23.346;2023-02-10T14:41:21;97080.50;;;5.47;41.71
20624;BME280;10471;42.736;23.346;2023-02-10T14:43:48;97078.91;;;5.59;42.12
20624;BME280;10471;42.736;23.346;2023-02-10T14:46:30;97078.91;;;5.53;42.79
20624;BME280;10471;42.736;23.346;2023-02-10T14:49:00;97081.72;;;5.64;42.35
20624;BME280;10471;42.736;23.346;2023-02-10T14:51:28;97082.53;;;5.71;42.79